PWSweather.com
Personal Weather Stations
Station Observations
BREAKEY01
Lévis, Breakeyville, QC G6z 7G7

LévisBreakeyville, QC G6z 7G7

Lat: 46.681, Lon: -71.224

Elevation: 328

Station Type: Davis Vantage Pro2

http://www.meteobreakey.com

Latest ConditionsUpdated 2:52:02 AM EDT Sunday, Jul 23, 2017
Currently Today's Max Today's Min Today's Average
Temperature 46.2°F7.9°C 52.0°F11.1°C 46.2°F7.9°C 48.8°F9.3°C
Dew Point 43.5°F6.4°C 45.1°F7.3°C 43.5°F6.4°C 44.3°F6.8°C
Winds Calm Calm 0.9 mph S1.4 kmh S - 0.1 mph 0.2 kmh
Wind Gusts -- 0.9 mph1.4 kmh - -
Humidity 90% 90% 77% 84%
Pressure 29.86 in1011.2 mb 29.88 in1011.9 mb 29.86 in1011.2 mb -
Hour Temp Dew Point Humidity Winds Wind Gusts Pressure Precip Precip Rate Daily Precip Total
02:52 AM 46.2°F7.9°C 43.5°F6.4°C 90% Calm Calm -- 29.86 in1011.2 mb - 0.00 in0.0 mm 0.00 in0.0 mm
02:47 AM 46.4°F8.0°C 43.7°F6.5°C 90% 0.9 mph S1.4 kmh S -- 29.86 in1011.2 mb - 0.00 in0.0 mm 0.00 in0.0 mm
02:42 AM 46.6°F8.1°C 43.9°F6.6°C 90% 0.9 mph S1.4 kmh S -- 29.86 in1011.2 mb - 0.00 in0.0 mm 0.00 in0.0 mm
02:37 AM 46.6°F8.1°C 43.5°F6.4°C 89% 0.9 mph S1.4 kmh S 0.9 mph1.4 kmh 29.86 in1011.2 mb - 0.00 in0.0 mm 0.00 in0.0 mm
02:32 AM 46.8°F8.2°C 43.7°F6.5°C 89% 0.9 mph S1.4 kmh S -- 29.86 in1011.2 mb - 0.00 in0.0 mm 0.00 in0.0 mm
02:27 AM 46.8°F8.2°C 43.7°F6.5°C 89% Calm Calm -- 29.86 in1011.2 mb - 0.00 in0.0 mm 0.00 in0.0 mm
02:22 AM 46.8°F8.2°C 43.7°F6.5°C 89% Calm Calm 0.9 mph1.4 kmh 29.86 in1011.2 mb - 0.00 in0.0 mm 0.00 in0.0 mm
02:17 AM 46.9°F8.3°C 43.5°F6.4°C 88% Calm Calm 0.9 mph1.4 kmh 29.86 in1011.2 mb - 0.00 in0.0 mm 0.00 in0.0 mm
02:12 AM 47.1°F8.4°C 43.7°F6.5°C 88% Calm Calm -- 29.86 in1011.2 mb - 0.00 in0.0 mm 0.00 in0.0 mm
02:07 AM 47.1°F8.4°C 43.7°F6.5°C 88% Calm Calm -- 29.86 in1011.2 mb - 0.00 in0.0 mm 0.00 in0.0 mm
02:02 AM 47.5°F8.6°C 44.1°F6.7°C 88% Calm Calm -- 29.86 in1011.2 mb - 0.00 in0.0 mm 0.00 in0.0 mm
01:57 AM 47.7°F8.7°C 44.1°F6.7°C 87% Calm Calm -- 29.87 in1011.5 mb - 0.00 in0.0 mm 0.00 in0.0 mm
01:52 AM 47.7°F8.7°C 44.1°F6.7°C 87% Calm Calm -- 29.87 in1011.5 mb - 0.00 in0.0 mm 0.00 in0.0 mm
01:47 AM 47.8°F8.8°C 43.9°F6.6°C 86% Calm Calm -- 29.87 in1011.5 mb - 0.00 in0.0 mm 0.00 in0.0 mm
01:42 AM 48.0°F8.9°C 44.1°F6.7°C 86% Calm Calm -- 29.87 in1011.5 mb - 0.00 in0.0 mm 0.00 in0.0 mm
01:37 AM 48.2°F9.0°C 43.9°F6.6°C 85% Calm Calm -- 29.87 in1011.5 mb - 0.00 in0.0 mm 0.00 in0.0 mm
01:32 AM 48.4°F9.1°C 44.1°F6.7°C 85% Calm Calm -- 29.87 in1011.5 mb - 0.00 in0.0 mm 0.00 in0.0 mm
01:27 AM 48.6°F9.2°C 43.9°F6.6°C 84% Calm Calm -- 29.87 in1011.5 mb - 0.00 in0.0 mm 0.00 in0.0 mm
01:22 AM 48.7°F9.3°C 44.1°F6.7°C 84% Calm Calm -- 29.87 in1011.5 mb - 0.00 in0.0 mm 0.00 in0.0 mm
01:17 AM 49.1°F9.5°C 44.4°F6.9°C 84% Calm Calm -- 29.88 in1011.9 mb - 0.00 in0.0 mm 0.00 in0.0 mm
01:12 AM 49.3°F9.6°C 44.4°F6.9°C 83% Calm Calm -- 29.88 in1011.9 mb - 0.00 in0.0 mm 0.00 in0.0 mm
01:07 AM 49.5°F9.7°C 44.6°F7.0°C 83% Calm Calm -- 29.87 in1011.5 mb - 0.00 in0.0 mm 0.00 in0.0 mm
01:02 AM 49.8°F9.9°C 44.6°F7.0°C 82% Calm Calm -- 29.87 in1011.5 mb - 0.00 in0.0 mm 0.00 in0.0 mm
12:57 AM 50.0°F10.0°C 44.8°F7.1°C 82% Calm Calm -- 29.87 in1011.5 mb - 0.00 in0.0 mm 0.00 in0.0 mm
12:52 AM 50.2°F10.1°C 45.0°F7.2°C 82% Calm Calm 0.9 mph1.4 kmh 29.88 in1011.9 mb - 0.00 in0.0 mm 0.00 in0.0 mm
12:47 AM 50.2°F10.1°C 45.0°F7.2°C 82% Calm Calm -- 29.88 in1011.9 mb - 0.00 in0.0 mm 0.00 in0.0 mm
12:42 AM 50.4°F10.2°C 45.1°F7.3°C 82% Calm Calm -- 29.88 in1011.9 mb - 0.00 in0.0 mm 0.00 in0.0 mm
12:37 AM 50.5°F10.3°C 45.0°F7.2°C 81% Calm Calm -- 29.87 in1011.5 mb - 0.00 in0.0 mm 0.00 in0.0 mm
12:32 AM 50.7°F10.4°C 44.8°F7.1°C 80% Calm Calm -- 29.87 in1011.5 mb - 0.00 in0.0 mm 0.00 in0.0 mm
12:27 AM 50.9°F10.5°C 45.0°F7.2°C 80% Calm Calm -- 29.87 in1011.5 mb - 0.00 in0.0 mm 0.00 in0.0 mm
12:22 AM 51.1°F10.6°C 44.8°F7.1°C 79% Calm Calm -- 29.86 in1011.2 mb - 0.00 in0.0 mm 0.00 in0.0 mm
12:17 AM 51.3°F10.7°C 45.0°F7.2°C 79% Calm Calm -- 29.86 in1011.2 mb - 0.00 in0.0 mm 0.00 in0.0 mm
12:12 AM 51.4°F10.8°C 44.8°F7.1°C 78% Calm Calm -- 29.87 in1011.5 mb - 0.00 in0.0 mm 0.00 in0.0 mm
12:07 AM 51.6°F10.9°C 45.0°F7.2°C 78% Calm Calm -- 29.87 in1011.5 mb - 0.00 in0.0 mm 0.00 in0.0 mm
12:02 AM 52.0°F11.1°C 45.0°F7.2°C 77% Calm Calm -- 29.86 in1011.2 mb - 0.00 in0.0 mm 0.00 in0.0 mm